createdAt,value
2023-04-11T00:00:25.101Z,9.30
2023-04-11T00:02:54.830Z,9.30
2023-04-11T00:05:23.089Z,9.30
2023-04-11T00:07:52.445Z,9.30
2023-04-11T00:10:20.779Z,9.40
2023-04-11T00:12:48.753Z,9.40
2023-04-11T00:15:17.538Z,9.40
2023-04-11T00:17:46.070Z,9.50
2023-04-11T00:20:15.114Z,9.50
2023-04-11T00:22:43.549Z,9.50
2023-04-11T00:25:13.352Z,9.50
2023-04-11T00:27:41.411Z,9.50
2023-04-11T00:30:10.515Z,9.50
2023-04-11T00:32:38.607Z,9.50
2023-04-11T00:35:08.670Z,9.50
2023-04-11T00:37:36.945Z,9.50
2023-04-11T00:40:07.603Z,9.50
2023-04-11T00:42:36.980Z,9.50
2023-04-11T00:45:05.857Z,9.50
2023-04-11T00:47:34.727Z,9.50
2023-04-11T00:50:03.759Z,9.50
2023-04-11T00:52:32.256Z,9.50
2023-04-11T00:55:03.290Z,9.50
2023-04-11T00:57:32.227Z,9.60
2023-04-11T01:00:02.916Z,9.60
2023-04-11T01:02:31.156Z,9.60
2023-04-11T01:05:00.699Z,9.60
2023-04-11T01:07:31.466Z,9.60
2023-04-11T01:10:02.073Z,9.60
2023-04-11T01:12:31.526Z,9.50
2023-04-11T01:15:01.120Z,9.50
2023-04-11T01:17:29.387Z,9.50
2023-04-11T01:19:57.807Z,9.40
2023-04-11T01:22:27.982Z,9.40
2023-04-11T01:24:58.616Z,9.40
2023-04-11T01:27:27.526Z,9.40
2023-04-11T01:29:55.721Z,9.30
2023-04-11T01:32:23.775Z,9.30
2023-04-11T01:34:57.921Z,9.30
2023-04-11T01:37:26.580Z,9.30
2023-04-11T01:39:55.072Z,9.20
2023-04-11T01:42:25.495Z,9.20
2023-04-11T01:44:54.840Z,9.10
2023-04-11T01:47:23.125Z,9.10
2023-04-11T01:49:53.644Z,9.10
2023-04-11T01:52:21.650Z,9.10
2023-04-11T01:54:49.863Z,9.10
2023-04-11T01:57:17.990Z,9.00
2023-04-11T01:59:47.393Z,9.00
2023-04-11T02:02:56.062Z,9.00
2023-04-11T02:05:24.036Z,8.90
2023-04-11T02:07:52.033Z,8.90
2023-04-11T02:10:20.366Z,8.90
2023-04-11T02:12:48.345Z,8.90
2023-04-11T02:15:17.843Z,9.00
2023-04-11T02:17:45.980Z,9.00
2023-04-11T02:20:15.512Z,9.10
2023-04-11T02:22:43.539Z,9.10
2023-04-11T02:25:11.543Z,9.10
2023-04-11T02:27:39.515Z,9.10
2023-04-11T02:30:08.993Z,9.20
2023-04-11T02:32:39.486Z,9.20
2023-04-11T02:35:08.188Z,9.30
2023-04-11T02:37:36.627Z,9.20
2023-04-11T02:40:05.758Z,9.30
2023-04-11T02:42:34.023Z,9.30
2023-04-11T02:45:02.560Z,9.30
2023-04-11T02:47:30.673Z,9.20
2023-04-11T02:50:00.128Z,9.10
2023-04-11T02:52:28.338Z,9.10
2023-04-11T02:54:56.432Z,9.10
2023-04-11T02:57:24.615Z,9.10
2023-04-11T02:59:52.721Z,9.10
2023-04-11T03:02:21.108Z,9.10
2023-04-11T03:04:49.175Z,9.00
2023-04-11T03:07:18.636Z,8.80
2023-04-11T03:09:46.632Z,8.70
2023-04-11T03:12:14.870Z,8.60
2023-04-11T03:14:42.954Z,8.60
2023-04-11T03:17:11.001Z,8.60
2023-04-11T03:19:39.066Z,8.50
2023-04-11T03:22:07.270Z,8.50
2023-04-11T03:24:39.269Z,8.50
2023-04-11T03:27:07.492Z,8.60
2023-04-11T03:29:37.110Z,8.50
2023-04-11T03:32:06.625Z,8.50
2023-04-11T03:34:34.768Z,8.60
2023-04-11T03:37:02.808Z,8.60
2023-04-11T03:39:30.839Z,8.50
2023-04-11T03:42:01.762Z,8.50
2023-04-11T03:44:29.818Z,8.50
2023-04-11T03:46:58.004Z,8.40
2023-04-11T03:49:26.235Z,8.30
2023-04-11T03:51:54.557Z,8.20
2023-04-11T03:54:22.764Z,8.20
2023-04-11T03:56:50.811Z,8.10
2023-04-11T03:59:20.842Z,8.10
2023-04-11T04:01:48.972Z,8.20
2023-04-11T04:04:17.143Z,8.20
2023-04-11T04:06:45.992Z,8.10
2023-04-11T04:09:14.073Z,8.20
2023-04-11T04:11:42.075Z,8.20
2023-04-11T04:14:10.160Z,8.20
2023-04-11T04:16:39.574Z,8.20
2023-04-11T04:19:07.644Z,8.20
2023-04-11T04:21:38.072Z,8.30
2023-04-11T04:24:06.865Z,8.40
2023-04-11T04:26:37.988Z,8.40
2023-04-11T04:29:06.235Z,8.40
2023-04-11T04:31:35.153Z,8.40
2023-04-11T04:34:10.527Z,8.40
2023-04-11T04:36:47.680Z,8.30
2023-04-11T04:39:19.497Z,8.30
2023-04-11T04:41:48.865Z,8.20
2023-04-11T04:44:17.571Z,8.20
2023-04-11T04:46:46.058Z,8.20
2023-04-11T04:49:15.612Z,8.20
2023-04-11T04:51:43.692Z,8.20
2023-04-11T04:54:12.093Z,8.20
2023-04-11T04:56:41.524Z,8.20
2023-04-11T04:59:14.528Z,8.30
2023-04-11T05:01:45.875Z,8.30
2023-04-11T05:04:15.566Z,8.30
2023-04-11T05:06:44.144Z,8.10
2023-04-11T05:09:12.375Z,7.80
2023-04-11T05:11:40.473Z,7.70
2023-04-11T05:14:08.565Z,7.60
2023-04-11T05:16:37.533Z,7.70
2023-04-11T05:19:05.869Z,7.90
2023-04-11T05:21:35.406Z,8.10
2023-04-11T05:24:03.500Z,8.20
2023-04-11T05:26:32.116Z,8.10
2023-04-11T05:29:01.402Z,8.00
2023-04-11T05:31:29.757Z,7.90
2023-04-11T05:33:59.027Z,7.80
2023-04-11T05:36:28.394Z,7.70
2023-04-11T05:38:57.931Z,7.80
2023-04-11T05:41:26.075Z,7.90
2023-04-11T05:43:54.400Z,8.00
2023-04-11T05:46:22.789Z,8.10
2023-04-11T05:48:51.047Z,8.20
2023-04-11T05:51:19.129Z,8.20
2023-04-11T05:53:48.704Z,8.20
2023-04-11T05:56:18.196Z,8.20
2023-04-11T05:58:46.253Z,8.30
2023-04-11T06:01:18.293Z,8.40
2023-04-11T06:03:46.897Z,8.40
2023-04-11T06:06:17.910Z,8.50
2023-04-11T06:08:48.038Z,8.40
2023-04-11T06:11:17.586Z,8.20
2023-04-11T06:16:32.582Z,8.30
2023-04-11T06:19:01.171Z,8.50
2023-04-11T06:21:29.324Z,8.60
2023-04-11T06:23:57.836Z,8.50
2023-04-11T06:26:29.708Z,8.50
2023-04-11T06:28:58.777Z,8.70
2023-04-11T06:31:27.263Z,8.70
2023-04-11T06:33:55.809Z,8.70
2023-04-11T06:36:24.097Z,8.80
2023-04-11T06:38:52.085Z,8.80
2023-04-11T06:41:20.497Z,8.80
2023-04-11T06:43:49.886Z,9.30
2023-04-11T06:46:17.936Z,10.10
2023-04-11T06:48:46.074Z,10.40
2023-04-11T06:51:14.097Z,11.40
2023-04-11T06:53:42.188Z,11.80
2023-04-11T06:56:11.523Z,11.30
2023-04-11T06:58:39.626Z,11.10
2023-04-11T07:01:09.414Z,10.60
2023-04-11T07:03:38.020Z,10.60
2023-04-11T07:06:07.346Z,10.60
2023-04-11T07:08:35.717Z,10.60
2023-04-11T07:11:04.435Z,10.70
2023-04-11T07:13:32.572Z,10.60
2023-04-11T07:16:00.636Z,10.60
2023-04-11T07:18:30.927Z,10.60
2023-04-11T07:21:01.951Z,10.50
2023-04-11T07:23:30.402Z,10.70
2023-04-11T07:26:03.772Z,10.40
2023-04-11T07:28:41.035Z,10.30
2023-04-11T07:31:09.974Z,10.20
2023-04-11T07:33:39.651Z,10.10
2023-04-11T07:36:12.659Z,10.30
2023-04-11T07:38:42.037Z,11.60
2023-04-11T07:41:11.141Z,12.50
2023-04-11T07:43:39.411Z,13.40
2023-04-11T07:46:07.972Z,13.90
2023-04-11T07:48:36.345Z,13.70
2023-04-11T07:51:07.445Z,13.40
2023-04-11T07:53:37.079Z,12.80
2023-04-11T07:56:05.850Z,12.00
2023-04-11T07:58:33.972Z,11.80
2023-04-11T08:01:02.897Z,11.60
2023-04-11T08:03:32.156Z,11.40
2023-04-11T08:06:00.358Z,11.20
2023-04-11T08:08:29.821Z,11.20
2023-04-11T08:10:57.858Z,12.40
2023-04-11T08:13:26.119Z,13.40
2023-04-11T08:15:54.537Z,12.90
2023-04-11T08:18:23.175Z,13.70
2023-04-11T08:20:51.667Z,13.20
2023-04-11T08:23:20.525Z,12.30
2023-04-11T08:25:50.464Z,11.70
2023-04-11T08:28:21.746Z,11.50
2023-04-11T08:31:01.233Z,12.60
2023-04-11T08:33:39.801Z,13.90
2023-04-11T08:36:12.550Z,13.60
2023-04-11T08:38:41.824Z,12.80
2023-04-11T08:41:12.247Z,11.90
2023-04-11T08:43:41.336Z,10.90
2023-04-11T08:46:11.624Z,10.50
2023-04-11T08:48:40.298Z,10.80
2023-04-11T08:51:08.873Z,11.10
2023-04-11T08:53:40.669Z,10.80
2023-04-11T08:56:17.827Z,10.60
2023-04-11T08:58:46.384Z,12.10
2023-04-11T09:01:30.476Z,14.40
2023-04-11T09:04:01.989Z,16.00
2023-04-11T09:06:37.010Z,16.60
2023-04-11T09:09:07.069Z,16.70
2023-04-11T09:11:55.988Z,16.00
2023-04-11T09:14:47.932Z,14.80
2023-04-11T09:17:17.138Z,14.10
2023-04-11T09:19:47.674Z,13.60
2023-04-11T09:22:19.950Z,13.00
2023-04-11T09:25:03.812Z,12.70
2023-04-11T09:27:33.497Z,12.80
2023-04-11T09:30:05.852Z,12.90
2023-04-11T09:32:41.759Z,12.90
2023-04-11T09:35:15.724Z,12.70
2023-04-11T09:37:58.310Z,12.90
2023-04-11T09:40:31.609Z,13.50
2023-04-11T09:43:04.483Z,14.00
2023-04-11T09:45:44.260Z,13.60
2023-04-11T09:48:32.042Z,14.40
2023-04-11T09:51:09.182Z,14.60
2023-04-11T09:53:38.368Z,14.80
2023-04-11T09:56:08.055Z,15.80
2023-04-11T09:58:41.139Z,16.50
2023-04-11T10:01:13.386Z,17.50
2023-04-11T10:03:41.903Z,17.00
2023-04-11T10:06:22.436Z,15.40
2023-04-11T10:08:53.878Z,14.50
2023-04-11T10:11:52.003Z,13.70
2023-04-11T10:14:50.031Z,13.30
2023-04-11T10:17:24.296Z,14.00
2023-04-11T10:20:02.092Z,14.10
2023-04-11T10:23:02.213Z,14.60
2023-04-11T10:25:32.606Z,15.40
2023-04-11T10:28:05.573Z,15.60
2023-04-11T10:31:07.494Z,15.20
2023-04-11T10:33:37.380Z,14.60
2023-04-11T10:36:11.468Z,13.70
2023-04-11T10:38:51.621Z,13.80
2023-04-11T10:41:32.646Z,14.40
2023-04-11T10:44:21.034Z,15.40
2023-04-11T10:46:54.002Z,15.40
2023-04-11T10:49:40.489Z,15.10
2023-04-11T10:52:20.802Z,15.80
2023-04-11T10:54:50.683Z,15.80
2023-04-11T10:57:19.117Z,15.30
2023-04-11T11:00:15.425Z,16.20
2023-04-11T11:02:45.041Z,17.50
2023-04-11T11:05:27.428Z,18.20
2023-04-11T11:07:55.572Z,17.60
2023-04-11T11:10:46.237Z,17.40
2023-04-11T11:13:17.625Z,17.60
2023-04-11T11:15:50.065Z,16.90
2023-04-11T11:18:19.789Z,16.30
2023-04-11T11:20:47.891Z,16.20
2023-04-11T11:23:16.069Z,16.20
2023-04-11T11:25:54.818Z,16.30
2023-04-11T11:28:24.097Z,16.30
2023-04-11T11:30:55.658Z,16.60
2023-04-11T11:33:27.440Z,16.10
2023-04-11T11:35:58.629Z,16.10
2023-04-11T11:38:29.392Z,15.60
2023-04-11T11:40:59.288Z,15.80
2023-04-11T11:43:28.336Z,16.20
2023-04-11T11:46:12.045Z,16.20
2023-04-11T11:48:43.367Z,15.90
2023-04-11T11:51:11.642Z,15.80
2023-04-11T11:53:40.113Z,16.40
2023-04-11T11:56:16.997Z,16.00
2023-04-11T11:58:45.847Z,15.20
2023-04-11T12:01:17.089Z,15.30
2023-04-11T12:03:51.221Z,15.80
2023-04-11T12:06:19.831Z,15.70
2023-04-11T12:08:51.880Z,15.00
2023-04-11T12:11:19.909Z,14.70
2023-04-11T12:13:54.252Z,14.90
2023-04-11T12:16:24.264Z,14.90
2023-04-11T12:18:53.799Z,14.80
2023-04-11T12:21:21.866Z,14.40
2023-04-11T12:23:49.898Z,14.00
2023-04-11T12:26:20.919Z,14.20
2023-04-11T12:28:49.381Z,14.70
2023-04-11T12:31:17.680Z,15.30
2023-04-11T12:33:45.838Z,15.60
2023-04-11T12:36:15.481Z,15.50
2023-04-11T12:38:43.585Z,16.00
2023-04-11T12:41:30.983Z,16.90
2023-04-11T12:44:01.832Z,17.20
2023-04-11T12:46:29.901Z,17.60
2023-04-11T12:48:58.198Z,17.50
2023-04-11T12:51:28.113Z,17.70
2023-04-11T12:53:56.114Z,17.40
2023-04-11T12:56:24.223Z,17.20
2023-04-11T12:58:52.245Z,17.40
2023-04-11T13:01:21.132Z,17.60
2023-04-11T13:03:49.292Z,17.20
2023-04-11T13:06:19.012Z,17.10
2023-04-11T13:08:48.434Z,16.50
2023-04-11T13:11:16.477Z,15.60
2023-04-11T13:13:45.004Z,15.00
2023-04-11T13:16:13.713Z,15.90
2023-04-11T13:18:41.984Z,15.80
2023-04-11T13:21:10.129Z,15.20
2023-04-11T13:23:38.185Z,14.90
2023-04-11T13:26:08.542Z,14.30
2023-04-11T13:28:36.755Z,14.00
2023-04-11T13:31:04.905Z,13.60
2023-04-11T13:33:32.987Z,13.30
2023-04-11T13:36:01.075Z,13.30
2023-04-11T13:38:29.172Z,13.60
2023-04-11T13:40:57.195Z,13.80
2023-04-11T13:43:26.850Z,14.20
2023-04-11T13:45:54.950Z,14.30
2023-04-11T13:48:22.988Z,14.40
2023-04-11T13:50:51.140Z,14.70
2023-04-11T13:53:19.192Z,15.00
2023-04-11T13:55:49.033Z,15.10
2023-04-11T13:58:17.194Z,15.20
2023-04-11T14:00:47.718Z,15.00
2023-04-11T14:03:15.892Z,14.70
2023-04-11T14:05:43.950Z,14.60
2023-04-11T14:08:11.980Z,14.50
2023-04-11T14:10:39.983Z,14.80
2023-04-11T14:13:08.256Z,15.30
2023-04-11T14:15:39.298Z,15.40
2023-04-11T14:18:08.737Z,15.40
2023-04-11T14:20:36.785Z,15.50
2023-04-11T14:23:04.967Z,15.60
2023-04-11T14:25:33.036Z,15.70
2023-04-11T14:28:01.203Z,16.50
2023-04-11T14:30:29.541Z,17.70
2023-04-11T14:32:57.708Z,18.00
2023-04-11T14:35:27.188Z,16.90
2023-04-11T14:37:55.341Z,16.20
2023-04-11T14:40:23.400Z,15.70
2023-04-11T14:42:51.605Z,15.30
2023-04-11T14:45:19.678Z,15.40
2023-04-11T14:47:47.746Z,15.90
2023-04-11T14:50:15.980Z,16.60
2023-04-11T14:52:45.364Z,17.00
2023-04-11T14:55:13.805Z,16.80
2023-04-11T14:57:47.494Z,16.30
2023-04-11T15:00:20.960Z,15.70
2023-04-11T15:02:52.400Z,15.80
2023-04-11T15:05:21.551Z,15.70
2023-04-11T15:07:53.175Z,15.40
2023-04-11T15:10:25.824Z,15.10
2023-04-11T15:12:54.286Z,15.10
2023-04-11T15:15:22.499Z,15.10
2023-04-11T15:18:21.836Z,15.20
2023-04-11T15:20:49.896Z,15.30
2023-04-11T15:23:20.176Z,15.20
2023-04-11T15:25:52.935Z,15.00
2023-04-11T15:28:21.200Z,14.70
2023-04-11T15:30:51.674Z,14.40
2023-04-11T15:33:22.004Z,14.20
2023-04-11T15:35:50.032Z,14.00
2023-04-11T15:38:19.423Z,14.00
2023-04-11T15:40:50.883Z,13.80
2023-04-11T15:43:19.269Z,13.50
2023-04-11T15:45:47.780Z,13.20
2023-04-11T15:48:16.242Z,12.90
2023-04-11T15:50:46.608Z,12.50
2023-04-11T15:53:21.172Z,12.00
2023-04-11T15:55:49.248Z,11.50
2023-04-11T15:58:17.388Z,11.20
2023-04-11T16:00:46.930Z,10.90
2023-04-11T16:03:16.687Z,10.60
2023-04-11T16:05:45.693Z,10.40
2023-04-11T16:08:14.112Z,10.40
2023-04-11T16:10:46.443Z,10.70
2023-04-11T16:13:36.893Z,11.00
2023-04-11T16:16:06.760Z,11.30
2023-04-11T16:18:44.176Z,11.40
2023-04-11T16:21:19.772Z,11.50
2023-04-11T16:23:48.265Z,11.60
2023-04-11T16:26:17.848Z,11.70
2023-04-11T16:28:48.302Z,11.70
2023-04-11T16:31:21.959Z,11.70
2023-04-11T16:33:50.223Z,11.70
2023-04-11T16:36:21.998Z,11.80
2023-04-11T16:38:50.897Z,11.90
2023-04-11T16:41:20.880Z,12.00
2023-04-11T16:44:30.428Z,12.00
2023-04-11T16:47:15.245Z,12.00
2023-04-11T16:49:53.312Z,12.00
2023-04-11T16:52:31.531Z,11.90
2023-04-11T16:58:53.208Z,11.80
2023-04-11T17:01:21.394Z,11.70
2023-04-11T17:03:52.312Z,11.70
2023-04-11T17:06:20.856Z,11.60
2023-04-11T17:08:49.554Z,11.50
2023-04-11T17:11:17.779Z,11.50
2023-04-11T17:13:47.915Z,11.40
2023-04-11T17:16:18.415Z,11.40
2023-04-11T17:18:46.827Z,11.30
2023-04-11T17:21:16.769Z,11.30
2023-04-11T17:23:45.147Z,11.20
2023-04-11T17:26:13.570Z,11.10
2023-04-11T17:28:42.366Z,11.10
2023-04-11T17:31:14.342Z,11.00
2023-04-11T17:33:44.168Z,10.90
2023-04-11T17:36:13.476Z,10.80
2023-04-11T17:38:43.396Z,10.80
2023-04-11T17:41:15.088Z,10.70
2023-04-11T17:43:44.026Z,10.70
2023-04-11T17:46:12.418Z,10.60
2023-04-11T17:48:40.771Z,10.50
2023-04-11T17:51:10.254Z,10.50
2023-04-11T17:53:38.374Z,10.40
2023-04-11T17:56:07.808Z,10.40
2023-04-11T17:58:36.062Z,10.30
2023-04-11T18:01:04.850Z,10.20
2023-04-11T18:03:35.197Z,10.10
2023-04-11T18:06:03.872Z,10.00
2023-04-11T18:08:47.243Z,10.00
2023-04-11T18:11:18.342Z,10.00
2023-04-11T18:13:48.320Z,10.00
2023-04-11T18:16:18.134Z,10.00
2023-04-11T18:18:48.307Z,10.00
2023-04-11T18:21:17.720Z,9.90
2023-04-11T18:23:47.440Z,9.90
2023-04-11T18:26:18.080Z,9.90
2023-04-11T18:28:46.277Z,9.90
2023-04-11T18:31:14.530Z,9.80
2023-04-11T18:33:48.473Z,9.70
2023-04-11T18:36:16.669Z,9.60
2023-04-11T18:38:47.473Z,9.60
2023-04-11T18:41:18.342Z,9.50
2023-04-11T18:43:47.084Z,9.40
2023-04-11T18:46:15.473Z,9.40
2023-04-11T18:48:43.572Z,9.30
2023-04-11T18:51:11.678Z,9.30
2023-04-11T18:53:40.929Z,9.30
2023-04-11T18:56:10.439Z,9.20
2023-04-11T18:58:45.314Z,9.20
2023-04-11T19:01:16.465Z,9.10
2023-04-11T19:03:45.934Z,9.00
2023-04-11T19:06:14.798Z,8.90
2023-04-11T19:08:42.921Z,8.90
2023-04-11T19:11:12.391Z,8.90
2023-04-11T19:13:40.991Z,8.80
2023-04-11T19:16:09.291Z,8.90
2023-04-11T19:18:37.390Z,8.90
2023-04-11T19:21:05.994Z,8.80
2023-04-11T19:23:34.200Z,8.80
2023-04-11T19:26:02.424Z,8.70
2023-04-11T19:28:31.922Z,8.70
2023-04-11T19:31:01.251Z,8.70
2023-04-11T19:33:31.018Z,8.80
2023-04-11T19:35:59.120Z,8.80
2023-04-11T19:38:27.198Z,8.90
2023-04-11T19:40:55.718Z,9.00
2023-04-11T19:43:24.083Z,9.10
2023-04-11T19:45:53.653Z,9.00
2023-04-11T19:48:21.948Z,9.10
2023-04-11T19:50:50.020Z,9.10
2023-04-11T19:53:18.121Z,9.10
2023-04-11T19:55:51.929Z,9.00
2023-04-11T19:58:22.178Z,9.00
2023-04-11T20:00:50.816Z,9.00
2023-04-11T20:03:21.187Z,8.90
2023-04-11T20:05:49.699Z,8.80
2023-04-11T20:08:18.921Z,8.80
2023-04-11T20:10:47.083Z,8.80
2023-04-11T20:13:16.885Z,8.70
2023-04-11T20:15:45.055Z,8.70
2023-04-11T20:18:13.536Z,8.60
2023-04-11T20:20:43.341Z,8.50
2023-04-11T20:23:15.883Z,8.40
2023-04-11T20:25:44.331Z,8.30
2023-04-11T20:28:12.423Z,8.20
2023-04-11T20:30:41.936Z,8.20
2023-04-11T20:33:09.979Z,8.20
2023-04-11T20:35:38.108Z,8.20
2023-04-11T20:38:07.828Z,8.10
2023-04-11T20:40:36.984Z,8.10
2023-04-11T20:43:05.531Z,8.20
2023-04-11T20:45:33.866Z,8.30
2023-04-11T20:48:02.122Z,8.40
2023-04-11T20:50:33.210Z,8.40
2023-04-11T20:53:02.645Z,8.50
2023-04-11T20:55:33.337Z,8.50
2023-04-11T20:58:01.498Z,8.60
2023-04-11T21:00:30.078Z,8.70
2023-04-11T21:02:58.362Z,8.60
2023-04-11T21:05:27.184Z,8.70
2023-04-11T21:07:55.382Z,8.80
2023-04-11T21:10:23.808Z,8.70
2023-04-11T21:12:54.021Z,8.70
2023-04-11T21:15:23.118Z,8.80
2023-04-11T21:17:52.285Z,8.90
2023-04-11T21:20:22.156Z,9.20
2023-04-11T21:22:53.960Z,9.30
2023-04-11T21:25:22.709Z,9.20
2023-04-11T21:27:52.193Z,9.20
2023-04-11T21:30:20.406Z,9.10
2023-04-11T21:32:48.623Z,9.10
2023-04-11T21:35:16.784Z,9.10
2023-04-11T21:37:47.080Z,9.20
2023-04-11T21:40:16.690Z,9.20
2023-04-11T21:42:44.794Z,9.10
2023-04-11T21:45:14.627Z,9.00
2023-04-11T21:47:42.755Z,9.00
2023-04-11T21:50:12.315Z,9.00
2023-04-11T21:52:40.441Z,8.90
2023-04-11T21:55:09.860Z,8.90
2023-04-11T21:57:38.288Z,8.80
2023-04-11T22:00:10.658Z,8.80
2023-04-11T22:02:42.101Z,8.70
2023-04-11T22:05:12.581Z,8.70
2023-04-11T22:07:47.132Z,8.60
2023-04-11T22:10:22.188Z,8.60
2023-04-11T22:12:50.587Z,8.50
2023-04-11T22:15:18.929Z,8.50
2023-04-11T22:17:50.806Z,8.50
2023-04-11T22:20:20.034Z,8.50
2023-04-11T22:22:48.187Z,8.50
2023-04-11T22:25:18.267Z,8.40
2023-04-11T22:27:46.476Z,8.40
2023-04-11T22:30:16.425Z,8.40
2023-04-11T22:32:44.517Z,8.30
2023-04-11T22:35:15.903Z,8.30
2023-04-11T22:37:44.646Z,8.20
2023-04-11T22:40:15.436Z,8.20
2023-04-11T22:42:43.953Z,8.20
2023-04-11T22:45:12.542Z,8.10
2023-04-11T22:47:45.564Z,8.10
2023-04-11T22:50:16.595Z,8.00
2023-04-11T22:52:46.233Z,8.00
2023-04-11T22:55:16.180Z,7.90
2023-04-11T22:57:44.195Z,7.90
2023-04-11T23:00:16.250Z,7.90
2023-04-11T23:02:44.628Z,7.80
2023-04-11T23:05:14.661Z,7.80
2023-04-11T23:07:42.623Z,7.80
2023-04-11T23:10:14.023Z,7.80
2023-04-11T23:12:43.208Z,7.80
2023-04-11T23:15:12.798Z,7.80
2023-04-11T23:17:41.308Z,7.70
2023-04-11T23:20:13.178Z,7.70
2023-04-11T23:22:44.097Z,7.70
2023-04-11T23:25:13.986Z,7.60
2023-04-11T23:27:43.921Z,7.60
2023-04-11T23:30:14.853Z,7.60
2023-04-11T23:32:43.112Z,7.60
2023-04-11T23:35:11.802Z,7.60
2023-04-11T23:37:40.930Z,7.50
2023-04-11T23:40:13.712Z,7.50
2023-04-11T23:42:42.618Z,7.60
2023-04-11T23:45:12.753Z,7.50
2023-04-11T23:47:40.777Z,7.60
2023-04-11T23:50:09.646Z,7.60
2023-04-11T23:52:37.650Z,7.60
2023-04-11T23:55:07.322Z,7.60
2023-04-11T23:57:36.743Z,7.60
